Time;durP1;ratioP1;P1;durP2;ratioP2;P2;SDS_P1;SDS_P2;PMS_P1;PMS_P2;Temp;Humidity;BMP_temperature;BMP_pressure;BME280_temperature;BME280_humidity;BME280_pressure;Samples;Min_cycle;Max_cycle;Signal;HPM_P1;HPM_P2
2021/12/19 00:01:30;;;;;;;5.57;3.00;;;;;;;5.84;100.00;100560.75;5035246;28;20036;-49
2021/12/19 00:09:24;;;;;;;4.05;2.47;;;;;;;5.97;100.00;100520.78;5034926;28;20468;-49
2021/12/19 00:11:49;;;;;;;6.13;3.08;;;;;;;5.93;100.00;100535.56;5035149;28;20473;-48
2021/12/19 00:14:15;;;;;;;3.60;2.40;;;;;;;6.00;100.00;100509.47;5033780;28;20175;-50
2021/12/19 00:16:41;;;;;;;4.28;2.28;;;;;;;6.08;100.00;100510.34;5033577;28;20037;-48
2021/12/19 00:19:06;;;;;;;4.38;2.80;;;;;;;6.03;100.00;100512.97;5034856;28;20045;-49
2021/12/19 00:21:32;;;;;;;4.22;2.53;;;;;;;6.05;100.00;100505.13;5034673;28;20040;-53
2021/12/19 00:23:58;;;;;;;4.25;2.67;;;;;;;6.12;100.00;100510.31;5033650;28;20029;-49
2021/12/19 00:26:23;;;;;;;4.45;2.78;;;;;;;6.16;100.00;100495.53;5033468;28;20116;-48
2021/12/19 00:28:49;;;;;;;5.38;3.03;;;;;;;6.06;100.00;100494.66;5034422;28;20034;-48
2021/12/19 00:31:16;;;;;;;4.55;2.60;;;;;;;6.09;100.00;100488.59;5034601;28;20129;-47
2021/12/19 00:33:42;;;;;;;5.00;2.78;;;;;;;6.10;100.00;100477.28;5034644;28;20033;-47
2021/12/19 00:36:09;;;;;;;5.93;2.92;;;;;;;6.09;100.00;100475.53;5034149;28;20064;-47
2021/12/19 00:38:35;;;;;;;4.00;2.72;;;;;;;6.15;100.00;100468.59;5034476;28;20461;-47
2021/12/19 00:41:01;;;;;;;4.82;2.65;;;;;;;6.19;100.00;100458.16;5034505;28;20424;-46
2021/12/19 00:43:43;;;;;;;6.32;3.03;;;;;;;6.25;100.00;100463.34;5034514;28;20589;-48
2021/12/19 00:46:10;;;;;;;4.97;2.45;;;;;;;6.25;100.00;100447.69;5034257;28;20040;-48
2021/12/19 00:48:55;;;;;;;7.50;3.33;;;;;;;6.22;100.00;100443.31;5033411;28;20036;-48
2021/12/19 00:51:24;;;;;;;6.65;3.13;;;;;;;6.22;100.00;100434.63;5034358;28;20465;-49
2021/12/19 00:53:52;;;;;;;6.47;3.20;;;;;;;6.15;100.00;100447.72;5034234;28;20061;-51
2021/12/19 00:56:18;;;;;;;6.00;3.15;;;;;;;6.28;100.00;100437.25;5034022;28;20465;-49
2021/12/19 00:58:44;;;;;;;8.07;3.33;;;;;;;6.28;100.00;100438.09;5033372;28;20025;-47
2021/12/19 01:01:11;;;;;;;6.03;2.78;;;;;;;6.37;100.00;100432.84;5033803;28;20041;-49
2021/12/19 01:03:37;;;;;;;5.45;3.20;;;;;;;6.39;100.00;100445.91;5034093;28;20033;-48
2021/12/19 01:06:04;;;;;;;6.68;3.28;;;;;;;6.40;100.00;100437.19;5034064;28;20115;-47
2021/12/19 01:08:29;;;;;;;6.10;2.83;;;;;;;6.41;100.00;100445.00;5033998;28;20040;-51
2021/12/19 01:10:55;;;;;;;6.15;3.17;;;;;;;6.51;100.00;100448.47;5033848;28;20037;-47
2021/12/19 01:13:21;;;;;;;5.00;3.13;;;;;;;6.52;100.00;100438.88;5032482;28;20041;-46
2021/12/19 01:15:47;;;;;;;9.10;3.42;;;;;;;6.52;100.00;100444.97;5033560;28;20041;-47
2021/12/19 01:18:13;;;;;;;8.02;3.45;;;;;;;6.50;100.00;100436.25;5033810;28;20095;-47
2021/12/19 01:20:40;;;;;;;6.15;2.88;;;;;;;6.53;100.00;100428.44;5032826;28;20038;-48
2021/12/19 01:23:07;;;;;;;5.55;2.80;;;;;;;6.58;99.97;100420.56;5033762;28;20030;-48
2021/12/19 01:25:33;;;;;;;7.72;3.50;;;;;;;6.57;99.70;100424.94;5032451;28;20049;-46
2021/12/19 01:27:58;;;;;;;8.35;3.20;;;;;;;6.57;99.73;100418.84;5033665;28;20108;-49
2021/12/19 01:30:24;;;;;;;10.43;3.20;;;;;;;6.55;99.46;100439.75;5033392;28;20057;-46
2021/12/19 01:32:50;;;;;;;8.38;3.10;;;;;;;6.56;98.99;100433.66;5033969;28;20064;-46
2021/12/19 01:35:19;;;;;;;10.45;3.08;;;;;;;6.56;98.89;100428.41;5033609;28;20034;-47
2021/12/19 01:37:46;;;;;;;6.35;2.88;;;;;;;6.67;98.34;100420.56;5037382;28;20029;-47
2021/12/19 01:40:14;;;;;;;5.95;2.63;;;;;;;6.72;97.89;100423.13;5033213;28;20421;-48
2021/12/19 01:42:42;;;;;;;5.75;2.97;;;;;;;6.71;97.64;100426.63;5033361;28;20461;-50
2021/12/19 01:45:10;;;;;;;7.47;2.55;;;;;;;6.78;97.20;100425.69;5033559;28;20040;-48
2021/12/19 01:47:36;;;;;;;8.60;2.90;;;;;;;6.65;97.62;100420.53;5033527;28;20112;-49
2021/12/19 01:50:03;;;;;;;7.35;3.03;;;;;;;6.62;97.07;100423.19;5033297;28;20113;-50
2021/12/19 01:52:30;;;;;;;9.40;3.28;;;;;;;6.74;96.57;100422.22;5049771;28;20041;-49
2021/12/19 01:54:57;;;;;;;9.82;2.78;;;;;;;6.67;96.74;100420.56;5053297;28;20029;-49
2021/12/19 01:57:25;;;;;;;5.35;2.63;;;;;;;6.73;96.13;100411.81;5053220;28;20056;-50
2021/12/19 01:59:51;;;;;;;6.68;2.40;;;;;;;6.76;95.97;100419.63;5053150;28;20120;-51
2021/12/19 02:02:17;;;;;;;5.47;2.45;;;;;;;6.79;95.31;100393.50;5057407;28;20036;-48
2021/12/19 02:04:43;;;;;;;7.38;2.50;;;;;;;6.73;94.80;100385.69;5057374;28;20029;-50
2021/12/19 02:07:10;;;;;;;7.10;2.67;;;;;;;6.82;94.59;100388.22;5056095;28;20080;-48
2021/12/19 02:09:36;;;;;;;7.00;2.80;;;;;;;6.82;94.24;100393.47;5052922;28;20034;-53
2021/12/19 02:12:03;;;;;;;9.93;3.15;;;;;;;6.76;94.19;100409.19;5037961;28;20108;-50
2021/12/19 02:14:29;;;;;;;9.32;3.20;;;;;;;6.71;93.94;100461.44;5036111;28;20104;-52
2021/12/19 02:16:54;;;;;;;6.60;2.90;;;;;;;6.69;93.93;100397.91;5036984;28;20052;-52
2021/12/19 02:19:20;;;;;;;6.70;2.20;;;;;;;6.84;93.99;100389.09;5037186;28;20034;-48
2021/12/19 02:21:45;;;;;;;8.45;2.90;;;;;;;6.79;93.63;100383.06;5037853;28;20034;-52
2021/12/19 02:24:11;;;;;;;7.55;2.65;;;;;;;6.68;94.48;100393.56;5037245;28;20045;-51
2021/12/19 02:26:39;;;;;;;8.60;2.47;;;;;;;6.72;94.13;100386.56;5036836;28;20516;-51
2021/12/19 02:29:05;;;;;;;8.77;2.78;;;;;;;6.68;94.61;100348.31;5036963;28;20458;-51
2021/12/19 02:31:31;;;;;;;8.30;2.60;;;;;;;6.62;94.26;100338.75;5036935;28;20029;-51
2021/12/19 02:34:21;;;;;;;7.05;2.30;;;;;;;6.71;93.82;100316.97;5036982;28;20095;-51
2021/12/19 02:39:45;;;;;;;6.28;2.58;;;;;;;6.67;93.93;100279.56;5056515;28;20072;-48
2021/12/19 02:50:23;;;;;;;5.22;2.03;;;;;;;6.61;92.61;100343.09;5049354;28;20052;-50
2021/12/19 02:52:48;;;;;;;7.07;2.50;;;;;;;6.58;93.00;100337.94;5035468;28;20025;-50
2021/12/19 02:55:15;;;;;;;7.60;2.30;;;;;;;6.57;92.58;100330.09;5035516;28;20088;-48
2021/12/19 02:57:41;;;;;;;5.60;2.30;;;;;;;6.60;92.10;100324.84;5035260;28;20033;-50
2021/12/19 03:00:09;;;;;;;5.93;2.08;;;;;;;6.65;92.09;100316.09;5036174;28;20041;-50
2021/12/19 03:02:35;;;;;;;7.47;2.17;;;;;;;6.61;91.46;100317.00;5036165;28;20473;-48
2021/12/19 03:05:02;;;;;;;4.55;1.90;;;;;;;6.62;91.34;100328.31;5050465;28;20076;-52
2021/12/19 03:07:29;;;;;;;6.60;2.60;;;;;;;6.72;90.82;100329.13;5056336;28;20033;-48
2021/12/19 03:10:25;;;;;;;6.60;2.10;;;;;;;6.66;90.34;100304.81;5056225;28;20033;-48
2021/12/19 03:13:03;;;;;;;4.68;2.33;;;;;;;6.75;89.93;100303.00;5054646;28;20032;-47
2021/12/19 03:18:13;;;;;;;;;;;;;;;6.68;89.47;100306.53;5055601;28;20006;-52
2021/12/19 03:20:42;;;;;;;7.95;2.45;;;;;;;6.62;89.75;100308.31;5055773;28;20287;-47
2021/12/19 03:23:10;;;;;;;9.02;2.58;;;;;;;6.58;90.04;100301.38;5045270;28;20064;-47
2021/12/19 03:25:36;;;;;;;6.40;2.08;;;;;;;6.63;89.62;100320.47;5035937;28;20116;-49
2021/12/19 03:28:04;;;;;;;7.65;2.50;;;;;;;6.50;90.48;100324.03;5035682;28;20043;-49
2021/12/19 03:30:31;;;;;;;6.88;2.30;;;;;;;6.50;90.92;100320.53;5035500;28;20127;-48
2021/12/19 03:32:57;;;;;;;6.88;2.40;;;;;;;6.68;89.84;100293.47;5034460;28;20053;-48
2021/12/19 03:35:24;;;;;;;6.38;2.10;;;;;;;6.61;90.07;100296.09;5035521;28;20034;-47
2021/12/19 03:37:51;;;;;;;7.22;2.40;;;;;;;6.70;89.85;100276.91;5053851;28;20112;-47
2021/12/19 03:40:23;;;;;;;5.70;2.00;;;;;;;6.79;89.37;100278.59;5055426;28;20112;-48
2021/12/19 03:42:50;;;;;;;7.22;2.30;;;;;;;6.75;89.30;100295.16;5055619;28;20072;-48
2021/12/19 03:45:19;;;;;;;6.65;1.95;;;;;;;6.58;89.65;100296.16;5055532;28;20385;-50
2021/12/19 03:47:45;;;;;;;7.13;2.80;;;;;;;6.56;89.94;100308.34;5055177;28;20029;-48
2021/12/19 03:50:13;;;;;;;8.05;2.08;;;;;;;6.50;90.17;100339.69;5052107;28;20037;-49
2021/12/19 03:52:39;;;;;;;9.02;2.38;;;;;;;6.50;90.27;100326.63;5035167;28;20469;-52
2021/12/19 03:55:06;;;;;;;5.90;1.90;;;;;;;6.54;90.20;100297.06;5035228;28;20033;-49
2021/12/19 03:57:31;;;;;;;6.50;1.90;;;;;;;6.53;90.08;100302.25;5035290;28;20434;-49
2021/12/19 03:59:57;;;;;;;6.10;2.30;;;;;;;6.57;89.76;100302.22;5035420;28;20047;-46
2021/12/19 04:02:26;;;;;;;4.68;1.90;;;;;;;6.50;89.18;100297.91;5035024;28;20043;-49
2021/12/19 04:04:58;;;;;;;8.02;2.10;;;;;;;6.46;89.37;100295.34;5050332;28;20043;-45
2021/12/19 04:07:26;;;;;;;4.45;1.48;;;;;;;6.45;89.41;100285.78;5055103;28;20029;-46
2021/12/19 04:09:51;;;;;;;8.68;2.35;;;;;;;6.46;89.53;100270.09;5054899;28;20120;-47
2021/12/19 04:12:18;;;;;;;5.03;1.90;;;;;;;6.37;89.26;100281.47;5054984;28;20029;-47
2021/12/19 04:14:43;;;;;;;9.05;1.88;;;;;;;6.32;89.62;100277.16;5043225;28;20046;-49
2021/12/19 04:17:10;;;;;;;4.22;1.40;;;;;;;6.39;89.20;100264.06;5034665;28;20037;-47
2021/12/19 04:19:35;;;;;;;5.03;1.70;;;;;;;6.39;89.47;100258.84;5033679;28;20467;-46
2021/12/19 04:22:01;;;;;;;7.35;1.75;;;;;;;6.31;89.36;100238.91;5038925;28;20109;-49
2021/12/19 04:24:27;;;;;;;5.22;1.70;;;;;;;6.28;89.57;100238.94;5054961;28;20041;-47
2021/12/19 04:26:57;;;;;;;4.90;1.95;;;;;;;6.27;89.93;100226.75;5054645;28;20033;-48
2021/12/19 04:29:24;;;;;;;4.65;1.85;;;;;;;6.29;90.13;100230.22;5054265;28;20447;-47
2021/12/19 04:31:50;;;;;;;8.82;1.90;;;;;;;6.29;90.29;100235.44;5054390;28;20064;-46
2021/12/19 04:34:17;;;;;;;7.63;2.08;;;;;;;6.24;90.28;100247.66;5054581;28;20033;-47
2021/12/19 04:36:44;;;;;;;4.30;1.50;;;;;;;6.19;90.24;100245.06;5054368;28;20028;-49
2021/12/19 04:39:27;;;;;;;3.70;1.63;;;;;;;6.09;90.86;100252.06;5054583;28;20037;-47
2021/12/19 04:58:47;;;;;;;4.22;1.35;;;;;;;5.88;91.80;100223.47;5032541;28;20053;-48
2021/12/19 05:06:46;;;;;;;4.72;1.80;;;;;;;6.03;91.27;100239.06;5032809;28;20049;-49
2021/12/19 05:14:23;;;;;;;3.78;1.83;;;;;;;6.00;91.53;100228.66;5033784;28;20038;-50
2021/12/19 05:16:50;;;;;;;5.55;2.30;;;;;;;5.91;92.08;100228.66;5033887;28;20535;-49
2021/12/19 05:19:24;;;;;;;5.32;2.15;;;;;;;5.87;92.14;100245.22;5033599;28;20449;-49
2021/12/19 05:21:54;;;;;;;8.02;1.75;;;;;;;5.83;92.28;100233.91;5033897;28;20064;-48
2021/12/19 05:24:21;;;;;;;4.28;1.58;;;;;;;5.83;92.18;100240.88;5033720;28;20049;-50
2021/12/19 05:26:47;;;;;;;5.22;1.58;;;;;;;5.89;91.55;100233.00;5033840;28;20095;-48
2021/12/19 05:29:14;;;;;;;7.28;1.88;;;;;;;5.95;91.13;100227.81;5033339;28;20057;-49
2021/12/19 05:31:39;;;;;;;4.28;1.60;;;;;;;6.03;90.80;100236.47;5033623;28;20099;-49
2021/12/19 05:34:05;;;;;;;6.10;2.17;;;;;;;5.98;90.60;100251.25;5033420;28;20427;-49
2021/12/19 05:47:21;;;;;;;6.70;1.70;;;;;;;5.95;89.98;100256.50;5047788;28;20041;-48
2021/12/19 05:49:47;;;;;;;5.30;1.55;;;;;;;5.81;90.80;100274.75;5033461;28;20124;-52
2021/12/19 05:52:12;;;;;;;6.13;1.85;;;;;;;5.90;90.79;100260.81;5032296;28;20116;-48
2021/12/19 05:54:38;;;;;;;5.43;1.85;;;;;;;5.87;90.97;100255.63;5033378;28;20045;-49
2021/12/19 05:57:03;;;;;;;5.05;1.60;;;;;;;5.80;91.13;100293.03;5033196;28;20041;-49
2021/12/19 05:59:28;;;;;;;5.65;1.60;;;;;;;5.86;90.68;100274.75;5033225;28;20030;-48
2021/12/19 06:01:54;;;;;;;3.78;1.30;;;;;;;5.92;90.34;100283.44;5045739;28;20083;-48
2021/12/19 06:04:19;;;;;;;5.35;1.60;;;;;;;6.07;89.26;100266.88;5053328;28;20033;-50
2021/12/19 06:06:46;;;;;;;6.70;1.70;;;;;;;6.09;88.99;100252.06;5053298;28;20033;-48
2021/12/19 06:09:12;;;;;;;3.45;1.42;;;;;;;6.03;88.86;100248.63;5053046;28;20029;-49
2021/12/19 06:11:38;;;;;;;5.75;1.50;;;;;;;5.97;89.44;100236.47;5051734;28;20037;-48
2021/12/19 06:14:03;;;;;;;6.25;1.70;;;;;;;5.84;89.71;100232.19;5049254;28;20083;-50
2021/12/19 06:16:29;;;;;;;5.10;1.50;;;;;;;5.75;89.90;100253.94;5053134;28;20115;-48
2021/12/19 06:18:55;;;;;;;5.25;2.38;;;;;;;5.66;90.44;100264.38;5053130;28;20461;-48
2021/12/19 06:21:20;;;;;;;4.10;2.17;;;;;;;5.71;90.74;100240.94;5051904;28;20040;-48
2021/12/19 06:23:45;;;;;;;5.80;1.90;;;;;;;5.67;90.65;100251.38;5034765;28;20038;-49
2021/12/19 06:26:11;;;;;;;4.60;1.58;;;;;;;5.66;90.89;100241.81;5033151;28;20430;-48
2021/12/19 06:28:38;;;;;;;7.03;2.15;;;;;;;5.77;90.22;100235.69;5033299;28;20120;-47
2021/12/19 06:31:03;;;;;;;4.43;1.80;;;;;;;5.77;89.71;100240.91;5033125;28;20053;-48
2021/12/19 06:33:29;;;;;;;3.53;1.45;;;;;;;5.85;89.53;100247.81;5032175;28;20040;-49
2021/12/19 06:35:54;;;;;;;4.85;1.67;;;;;;;5.86;88.77;100233.03;5038601;28;20056;-50
2021/12/19 06:38:19;;;;;;;5.75;1.70;;;;;;;5.92;88.62;100227.81;5052784;28;20577;-50
2021/12/19 06:40:45;;;;;;;5.68;1.98;;;;;;;5.99;88.40;100232.13;5053018;28;20041;-51
2021/12/19 06:43:10;;;;;;;5.43;2.08;;;;;;;6.02;88.07;100223.41;5051789;28;20045;-50
2021/12/19 06:45:36;;;;;;;4.13;1.90;;;;;;;6.03;88.18;100228.63;5050295;28;20036;-48
2021/12/19 06:48:01;;;;;;;4.70;1.75;;;;;;;6.00;88.40;100227.78;5046490;28;20136;-49
2021/12/19 06:50:27;;;;;;;4.13;1.60;;;;;;;6.02;88.37;100245.13;5036460;28;20034;-48
2021/12/19 06:52:53;;;;;;;5.88;2.00;;;;;;;6.08;88.04;100232.06;5050444;28;20187;-49
2021/12/19 06:55:18;;;;;;;7.10;2.17;;;;;;;6.07;88.24;100230.34;5048421;28;20037;-48
2021/12/19 06:57:45;;;;;;;6.25;1.40;;;;;;;6.08;87.62;100221.66;5056693;28;20028;-49
2021/12/19 07:00:14;;;;;;;7.07;2.03;;;;;;;6.11;87.66;100224.25;5035995;28;20033;-51
2021/12/19 07:02:40;;;;;;;4.40;1.80;;;;;;;6.19;87.05;100228.56;5056008;28;20472;-49
2021/12/19 07:05:07;;;;;;;5.57;1.80;;;;;;;6.11;87.48;100226.84;5056191;28;20033;-48
2021/12/19 07:07:32;;;;;;;5.32;2.00;;;;;;;6.12;87.35;100228.56;5056109;28;20120;-49
2021/12/19 07:09:58;;;;;;;5.30;1.95;;;;;;;6.12;87.00;100232.94;5055958;28;20400;-49
2021/12/19 07:12:27;;;;;;;5.00;1.65;;;;;;;6.23;86.92;100220.69;5036605;28;20045;-48
2021/12/19 07:14:56;;;;;;;5.50;1.95;;;;;;;6.14;86.58;100234.66;5035939;28;20037;-49
2021/12/19 07:17:21;;;;;;;6.13;2.72;;;;;;;6.26;86.34;100230.22;5040509;28;20086;-47
2021/12/19 07:19:47;;;;;;;5.35;2.03;;;;;;;6.34;86.07;100231.94;5055795;28;20119;-47
2021/12/19 07:22:13;;;;;;;7.07;2.70;;;;;;;6.35;85.81;100227.56;5054259;28;20033;-51
2021/12/19 07:24:38;;;;;;;7.25;2.15;;;;;;;6.43;85.67;100212.72;5056036;28;20044;-47
2021/12/19 07:27:04;;;;;;;5.78;2.08;;;;;;;6.42;85.70;100221.41;5055827;28;20528;-49
2021/12/19 07:29:30;;;;;;;5.45;2.08;;;;;;;6.45;85.40;100225.75;5055564;28;20464;-47
2021/12/19 07:31:57;;;;;;;4.45;1.58;;;;;;;6.44;84.94;100211.84;5055619;28;20476;-48
2021/12/19 07:34:29;;;;;;;5.82;1.80;;;;;;;6.44;84.88;100209.22;5055525;28;20044;-49
2021/12/19 07:36:55;;;;;;;3.70;1.50;;;;;;;6.36;85.31;100211.91;5047614;28;20495;-48
2021/12/19 07:39:53;;;;;;;3.92;1.85;;;;;;;6.32;85.45;100220.63;5035675;28;20071;-51
2021/12/19 07:42:09;;;;;;;5.85;1.88;;;;;;;6.35;85.39;100211.91;5035475;28;20203;-49
2021/12/19 07:44:36;;;;;;;6.80;2.10;;;;;;;6.30;85.11;100185.81;5034155;28;20432;-52
2021/12/19 07:47:02;;;;;;;4.22;1.85;;;;;;;6.30;85.22;100200.63;5035222;28;20108;-51
2021/12/19 07:49:27;;;;;;;5.20;1.90;;;;;;;6.33;85.27;100177.13;5067124;28;20036;-50
2021/12/19 07:51:53;;;;;;;5.22;1.67;;;;;;;6.41;84.72;100181.41;5052567;28;20033;-48
2021/12/19 07:54:18;;;;;;;5.57;2.53;;;;;;;6.43;84.53;100185.75;5051771;28;20087;-47
2021/12/19 07:56:44;;;;;;;6.22;2.38;;;;;;;6.47;84.71;100167.44;5036628;28;20033;-50
2021/12/19 07:59:09;;;;;;;6.88;2.67;;;;;;;6.41;84.88;100172.72;5035011;28;20065;-47
2021/12/19 08:01:35;;;;;;;8.75;2.80;;;;;;;6.34;84.92;100176.22;5046536;28;20461;-48
2021/12/19 08:04:00;;;;;;;5.00;2.28;;;;;;;6.40;84.97;100169.22;5034845;28;20047;-48
2021/12/19 08:06:26;;;;;;;8.98;3.20;;;;;;;6.21;85.89;100153.72;5034865;28;20033;-48
2021/12/19 08:08:54;;;;;;;6.47;2.40;;;;;;;6.27;85.84;100175.44;5034996;28;20040;-48
2021/12/19 08:14:05;;;;;;;10.65;3.28;;;;;;;6.35;85.64;100164.94;5053580;28;20116;-48
2021/12/19 08:16:30;;;;;;;6.88;2.97;;;;;;;6.43;85.40;100159.66;5054615;28;20482;-49
2021/12/19 08:18:56;;;;;;;9.05;3.03;;;;;;;6.54;85.02;100163.03;5054929;28;20116;-48
2021/12/19 08:21:21;;;;;;;8.60;2.90;;;;;;;6.49;85.10;100167.44;5053931;28;20392;-49
2021/12/19 08:23:47;;;;;;;10.48;3.03;;;;;;;6.50;85.18;100156.97;5037405;28;20033;-48
2021/12/19 08:26:13;;;;;;;9.60;2.97;;;;;;;6.49;85.22;100155.25;5034720;28;20057;-47
2021/12/19 08:28:39;;;;;;;7.82;2.95;;;;;;;6.57;84.74;100158.66;5034645;28;20048;-51
2021/12/19 08:31:05;;;;;;;5.95;2.17;;;;;;;6.58;84.66;100164.72;5034416;28;20450;-51
2021/12/19 08:33:30;;;;;;;5.15;2.08;;;;;;;6.59;84.72;100162.13;5038800;28;20116;-49
2021/12/19 08:35:56;;;;;;;5.40;2.30;;;;;;;6.52;84.77;100164.81;5034564;28;20095;-47
2021/12/19 08:38:21;;;;;;;6.70;2.17;;;;;;;6.48;85.00;100169.19;5033246;28;20384;-48
2021/12/19 08:40:49;;;;;;;6.93;2.20;;;;;;;6.56;84.78;100175.19;5034368;28;20484;-48
2021/12/19 08:43:14;;;;;;;7.75;2.67;;;;;;;6.62;84.35;100166.44;5034110;28;20034;-51
2021/12/19 08:45:40;;;;;;;9.07;4.40;;;;;;;6.59;84.60;100167.34;5034230;28;20093;-52
2021/12/19 08:48:06;;;;;;;8.98;3.10;;;;;;;6.63;84.43;100158.59;5033921;28;20026;-49
2021/12/19 08:50:32;;;;;;;33.13;12.48;;;;;;;6.59;84.35;100156.91;5045267;28;20033;-49
2021/12/19 08:52:58;;;;;;;7.57;2.50;;;;;;;6.59;84.78;100158.66;5035291;28;20044;-49
2021/12/19 08:55:23;;;;;;;5.40;2.55;;;;;;;6.59;84.70;100154.28;5037002;28;20037;-48
2021/12/19 08:57:49;;;;;;;5.88;2.90;;;;;;;6.62;84.38;100156.00;5034126;28;20041;-48
2021/12/19 09:00:17;;;;;;;5.30;2.90;;;;;;;6.70;84.10;100159.41;5033716;28;20456;-49
2021/12/19 09:02:46;;;;;;;6.28;2.40;;;;;;;6.66;84.48;100152.47;5038196;28;20468;-48
2021/12/19 09:05:12;;;;;;;6.88;2.80;;;;;;;6.64;84.17;100160.34;5033819;28;20072;-56
2021/12/19 09:07:37;;;;;;;6.80;2.20;;;;;;;6.62;84.19;100162.09;5032814;28;20040;-52
2021/12/19 09:10:05;;;;;;;6.03;2.38;;;;;;;6.62;84.25;100162.09;5033385;28;20034;-47
2021/12/19 09:12:30;;;;;;;7.10;2.67;;;;;;;6.66;84.01;100169.03;5034712;28;20033;-51
2021/12/19 09:14:56;;;;;;;9.50;3.60;;;;;;;6.71;84.24;100174.19;5039122;28;20543;-51
2021/12/19 09:17:21;;;;;;;8.02;4.00;;;;;;;6.63;84.01;100162.97;5054527;28;20040;-50
2021/12/19 09:19:47;;;;;;;9.15;4.50;;;;;;;6.74;83.71;100173.28;5046427;28;20041;-47
2021/12/19 09:22:13;;;;;;;7.70;3.72;;;;;;;6.73;83.56;100167.22;5034487;28;20035;-49
2021/12/19 09:24:38;;;;;;;5.95;2.92;;;;;;;6.77;83.21;100153.25;5051572;28;20033;-49
2021/12/19 09:27:04;;;;;;;5.10;3.13;;;;;;;6.64;83.09;100164.69;5035249;28;20465;-49
2021/12/19 09:29:30;;;;;;;6.13;3.25;;;;;;;6.66;83.21;100166.41;5036261;28;20119;-50
2021/12/19 09:31:56;;;;;;;8.95;3.13;;;;;;;6.65;83.56;100161.19;5037859;28;20037;-48
2021/12/19 09:34:23;;;;;;;8.43;2.78;;;;;;;6.71;83.35;100160.28;5052043;28;20524;-48
2021/12/19 09:36:49;;;;;;;9.73;2.85;;;;;;;6.69;83.21;100152.44;5040667;28;20071;-50
2021/12/19 09:39:15;;;;;;;6.10;2.75;;;;;;;6.77;83.13;100148.03;5047576;28;20063;-48
2021/12/19 09:41:44;;;;;;;6.18;2.75;;;;;;;6.74;83.28;100149.78;5052883;28;20435;-48
2021/12/19 09:44:15;;;;;;;6.57;2.63;;;;;;;6.66;83.40;100155.09;5042984;28;20029;-48
2021/12/19 09:46:44;;;;;;;4.88;2.15;;;;;;;6.64;83.25;100156.84;5038558;28;20033;-49
2021/12/19 09:49:12;;;;;;;7.45;2.97;;;;;;;6.72;83.31;100154.19;5039213;28;20033;-49
2021/12/19 09:51:38;;;;;;;4.78;2.40;;;;;;;6.74;83.02;100153.25;5037378;28;20041;-48
2021/12/19 09:54:06;;;;;;;7.53;2.40;;;;;;;6.70;82.94;100155.91;5042146;28;20037;-51
2021/12/19 09:56:33;;;;;;;7.18;2.63;;;;;;;6.69;83.02;100147.22;5033064;28;20041;-52
2021/12/19 09:59:02;;;;;;;7.45;2.88;;;;;;;6.78;82.53;100155.00;5053893;28;20041;-51
2021/12/19 10:01:27;;;;;;;11.68;3.22;;;;;;;6.79;82.58;100145.41;5065409;28;20033;-48
2021/12/19 10:03:53;;;;;;;6.30;2.85;;;;;;;6.83;82.20;100150.59;5053106;28;20040;-50
2021/12/19 10:06:25;;;;;;;6.30;2.83;;;;;;;6.73;82.17;100137.63;5050426;28;20050;-47
2021/12/19 10:09:08;;;;;;;6.65;3.70;;;;;;;6.83;81.85;100132.31;5060922;28;20109;-48
2021/12/19 10:12:11;;;;;;;5.43;2.70;;;;;;;6.77;81.38;100129.75;5052973;28;20480;-49
2021/12/19 10:14:38;;;;;;;8.82;2.90;;;;;;;6.84;81.72;100135.78;5051593;28;20032;-49
2021/12/19 10:17:16;;;;;;;9.80;3.85;;;;;;;6.84;81.50;100144.47;5056351;28;20494;-49
2021/12/19 10:19:47;;;;;;;6.57;2.72;;;;;;;6.85;81.28;100134.88;5053187;28;20029;-49
2021/12/19 10:22:28;;;;;;;7.30;2.80;;;;;;;6.82;80.77;100132.28;5046682;28;20029;-52
2021/12/19 10:25:07;;;;;;;6.63;3.78;;;;;;;6.89;81.11;100128.75;5037017;28;20037;-49
2021/12/19 10:27:38;;;;;;;9.32;4.93;;;;;;;7.00;80.79;100121.66;5060554;28;20419;-48
2021/12/19 10:30:09;;;;;;;6.55;3.30;;;;;;;6.91;80.89;100129.63;5058748;28;20407;-51
2021/12/19 10:32:35;;;;;;;8.48;2.80;;;;;;;6.95;80.92;100128.69;5059427;28;20036;-49
2021/12/19 10:35:20;;;;;;;7.13;3.22;;;;;;;7.02;79.88;100119.03;5049566;28;20499;-50
2021/12/19 10:37:46;;;;;;;6.63;2.78;;;;;;;6.97;80.59;100115.59;5036566;28;20041;-51
2021/12/19 10:40:12;;;;;;;7.75;3.60;;;;;;;6.93;80.79;100108.69;5036843;28;20037;-50
2021/12/19 10:42:59;;;;;;;5.60;2.92;;;;;;;6.95;80.67;100109.56;5036324;28;20033;-50
2021/12/19 10:45:43;;;;;;;9.27;4.60;;;;;;;6.95;81.09;100107.81;5036835;28;20049;-49
2021/12/19 10:48:37;;;;;;;8.52;4.68;;;;;;;6.94;81.47;100102.56;5049897;28;20037;-48
2021/12/19 10:51:02;;;;;;;10.65;4.60;;;;;;;6.98;81.59;100097.31;5054537;28;20040;-51
2021/12/19 10:53:40;;;;;;;10.77;5.07;;;;;;;6.98;80.91;100086.88;5037985;28;20034;-49
2021/12/19 10:56:09;;;;;;;7.50;3.40;;;;;;;6.93;81.03;100088.66;5050199;28;20120;-47
2021/12/19 10:58:42;;;;;;;9.18;3.50;;;;;;;7.05;80.64;100083.28;5049929;28;20066;-50
2021/12/19 11:01:14;;;;;;;8.30;4.00;;;;;;;7.14;80.41;100077.97;5046997;28;20034;-49
2021/12/19 11:03:47;;;;;;;8.15;4.07;;;;;;;7.25;80.02;100079.56;5058953;28;20033;-51
2021/12/19 11:06:15;;;;;;;9.10;4.47;;;;;;;7.29;80.02;100073.41;5054443;28;20040;-49
2021/12/19 11:08:42;;;;;;;5.75;2.97;;;;;;;7.21;79.39;100077.88;5071002;28;20032;-48
2021/12/19 11:11:08;;;;;;;11.00;5.10;;;;;;;7.20;79.70;100078.75;5074993;28;20039;-46
2021/12/19 11:13:34;;;;;;;9.02;3.80;;;;;;;7.15;79.23;100082.31;5056672;28;20025;-53
2021/12/19 11:16:00;;;;;;;9.13;3.65;;;;;;;7.12;79.77;100074.50;5056105;28;20025;-47
2021/12/19 11:18:26;;;;;;;8.30;3.50;;;;;;;7.13;79.29;100081.44;5052056;28;20040;-48
2021/12/19 11:20:51;;;;;;;6.63;3.35;;;;;;;7.15;79.15;100074.47;5039249;28;20076;-51
2021/12/19 11:23:17;;;;;;;11.65;4.43;;;;;;;7.06;79.18;100081.53;5048254;28;20042;-50
2021/12/19 11:25:43;;;;;;;6.88;3.67;;;;;;;7.05;79.14;100082.41;5042614;28;20063;-48
2021/12/19 11:28:09;;;;;;;6.00;3.08;;;;;;;7.09;78.20;100084.97;5053712;28;20061;-49
2021/12/19 11:30:35;;;;;;;7.15;3.00;;;;;;;7.03;77.17;100099.88;5042875;28;20045;-49
2021/12/19 11:33:17;;;;;;;5.47;2.38;;;;;;;6.91;76.58;100099.13;5034777;28;20107;-50
2021/12/19 11:35:48;;;;;;;4.40;2.40;;;;;;;6.91;76.35;100078.22;5040124;28;20037;-47
2021/12/19 11:38:19;;;;;;;5.88;2.50;;;;;;;6.92;76.10;100076.47;5036596;28;20803;-48
2021/12/19 11:40:45;;;;;;;5.78;3.20;;;;;;;6.90;75.59;100078.22;5035460;28;20025;-47
2021/12/19 11:43:13;;;;;;;10.05;5.00;;;;;;;6.99;75.05;100070.31;5036451;28;20041;-48
2021/12/19 11:45:47;;;;;;;5.53;2.20;;;;;;;6.97;72.62;100074.66;5035450;28;20030;-48
2021/12/19 11:48:24;;;;;;;4.53;2.13;;;;;;;7.01;71.32;100049.38;5035404;28;20033;-48
2021/12/19 11:51:01;;;;;;;5.35;1.92;;;;;;;6.96;69.73;100043.34;5034179;28;20481;-47
2021/12/19 11:53:32;;;;;;;5.75;3.13;;;;;;;6.96;69.95;100030.31;5053476;28;20036;-53
2021/12/19 11:56:09;;;;;;;4.57;2.45;;;;;;;6.89;69.42;100022.53;5053533;28;20029;-49
2021/12/19 11:58:46;;;;;;;6.90;3.45;;;;;;;6.96;70.15;100004.19;5055210;28;20422;-53
2021/12/19 12:01:13;;;;;;;5.85;3.20;;;;;;;7.06;70.32;99997.94;5052998;28;20044;-50
2021/12/19 12:03:42;;;;;;;4.90;2.97;;;;;;;7.06;69.39;100005.78;5046060;28;20033;-48
2021/12/19 12:06:15;;;;;;;6.32;3.50;;;;;;;7.05;68.15;99985.75;5043507;28;20090;-47
2021/12/19 12:09:06;;;;;;;8.88;4.50;;;;;;;7.01;67.18;99986.69;5055099;28;20021;-47
2021/12/19 12:11:33;;;;;;;7.97;3.83;;;;;;;6.98;67.15;99997.16;5043021;28;20029;-47
2021/12/19 12:14:21;;;;;;;5.90;3.22;;;;;;;6.90;65.81;99990.31;5049358;28;20037;-48
2021/12/19 12:16:57;;;;;;;7.22;3.33;;;;;;;6.96;66.13;99975.44;5054834;28;20072;-48
2021/12/19 12:19:52;;;;;;;7.78;3.90;;;;;;;6.96;66.11;99978.06;5054736;28;20064;-48
2021/12/19 12:22:32;;;;;;;6.32;2.50;;;;;;;6.97;66.26;99970.19;5054494;28;20114;-49
2021/12/19 12:25:28;;;;;;;6.47;2.83;;;;;;;6.96;66.03;99967.59;5054851;28;20034;-50
2021/12/19 12:28:05;;;;;;;5.00;1.98;;;;;;;6.83;65.91;99991.28;5054530;28;20036;-49
2021/12/19 12:30:34;;;;;;;4.78;2.22;;;;;;;6.75;65.21;100005.31;5054181;28;20044;-49
2021/12/19 12:33:02;;;;;;;7.60;4.13;;;;;;;6.77;65.58;100004.41;5054393;28;20028;-48
2021/12/19 12:35:31;;;;;;;3.72;1.58;;;;;;;6.65;65.09;99999.31;5054317;28;20033;-50
2021/12/19 12:37:57;;;;;;;4.88;2.83;;;;;;;6.70;65.22;100007.94;5054499;28;20036;-48